sensor_id;sensor_type;location;lat;lon;timestamp;P1;durP1;ratioP1;P2;durP2;ratioP2
21661;SDS011;10992;48.170;8.596;2023-04-24T00:00:26;1.13;;;0.70;;
21661;SDS011;10992;48.170;8.596;2023-04-24T00:02:53;1.10;;;0.68;;
21661;SDS011;10992;48.170;8.596;2023-04-24T00:05:23;1.92;;;0.60;;
21661;SDS011;10992;48.170;8.596;2023-04-24T00:07:51;1.52;;;0.55;;
21661;SDS011;10992;48.170;8.596;2023-04-24T00:10:21;1.90;;;0.43;;
21661;SDS011;10992;48.170;8.596;2023-04-24T00:12:48;1.63;;;0.75;;
21661;SDS011;10992;48.170;8.596;2023-04-24T00:15:15;2.20;;;0.70;;
21661;SDS011;10992;48.170;8.596;2023-04-24T00:17:42;2.38;;;0.70;;
21661;SDS011;10992;48.170;8.596;2023-04-24T00:20:09;1.17;;;0.60;;
21661;SDS011;10992;48.170;8.596;2023-04-24T00:22:40;1.42;;;0.55;;
21661;SDS011;10992;48.170;8.596;2023-04-24T00:25:08;2.10;;;0.60;;
21661;SDS011;10992;48.170;8.596;2023-04-24T00:27:35;1.33;;;0.50;;
21661;SDS011;10992;48.170;8.596;2023-04-24T00:30:03;1.45;;;0.40;;
21661;SDS011;10992;48.170;8.596;2023-04-24T00:32:31;0.55;;;0.40;;
21661;SDS011;10992;48.170;8.596;2023-04-24T00:34:57;0.77;;;0.45;;
21661;SDS011;10992;48.170;8.596;2023-04-24T00:37:24;0.98;;;0.60;;
21661;SDS011;10992;48.170;8.596;2023-04-24T00:39:51;1.50;;;0.50;;
21661;SDS011;10992;48.170;8.596;2023-04-24T00:42:18;0.65;;;0.50;;
21661;SDS011;10992;48.170;8.596;2023-04-24T00:44:45;0.68;;;0.50;;
21661;SDS011;10992;48.170;8.596;2023-04-24T00:47:12;1.65;;;0.50;;
21661;SDS011;10992;48.170;8.596;2023-04-24T00:49:40;0.65;;;0.50;;
21661;SDS011;10992;48.170;8.596;2023-04-24T00:52:08;1.85;;;1.38;;
21661;SDS011;10992;48.170;8.596;2023-04-24T00:54:35;0.40;;;0.40;;
21661;SDS011;10992;48.170;8.596;2023-04-24T00:57:02;0.75;;;0.40;;
21661;SDS011;10992;48.170;8.596;2023-04-24T00:59:29;0.75;;;0.40;;
21661;SDS011;10992;48.170;8.596;2023-04-24T01:01:57;0.35;;;0.30;;
21661;SDS011;10992;48.170;8.596;2023-04-24T01:04:26;0.85;;;0.35;;
21661;SDS011;10992;48.170;8.596;2023-04-24T01:06:54;2.25;;;0.60;;
21661;SDS011;10992;48.170;8.596;2023-04-24T01:09:23;0.50;;;0.40;;
21661;SDS011;10992;48.170;8.596;2023-04-24T01:11:50;1.20;;;0.60;;
21661;SDS011;10992;48.170;8.596;2023-04-24T01:14:17;0.63;;;0.50;;
21661;SDS011;10992;48.170;8.596;2023-04-24T01:16:44;0.60;;;0.60;;
21661;SDS011;10992;48.170;8.596;2023-04-24T01:19:11;1.73;;;0.68;;
21661;SDS011;10992;48.170;8.596;2023-04-24T01:21:39;0.52;;;0.45;;
21661;SDS011;10992;48.170;8.596;2023-04-24T01:24:08;1.42;;;0.60;;
21661;SDS011;10992;48.170;8.596;2023-04-24T01:26:35;0.68;;;0.43;;
21661;SDS011;10992;48.170;8.596;2023-04-24T01:29:02;1.60;;;0.60;;
21661;SDS011;10992;48.170;8.596;2023-04-24T01:31:29;2.15;;;0.43;;
21661;SDS011;10992;48.170;8.596;2023-04-24T01:33:57;0.73;;;0.60;;
21661;SDS011;10992;48.170;8.596;2023-04-24T01:36:23;0.65;;;0.50;;
21661;SDS011;10992;48.170;8.596;2023-04-24T01:38:54;1.48;;;0.60;;
21661;SDS011;10992;48.170;8.596;2023-04-24T01:41:21;1.48;;;0.73;;
21661;SDS011;10992;48.170;8.596;2023-04-24T01:43:50;1.10;;;0.68;;
21661;SDS011;10992;48.170;8.596;2023-04-24T01:46:21;1.30;;;0.77;;
21661;SDS011;10992;48.170;8.596;2023-04-24T01:48:51;1.15;;;0.55;;
21661;SDS011;10992;48.170;8.596;2023-04-24T01:51:18;2.42;;;0.85;;
21661;SDS011;10992;48.170;8.596;2023-04-24T01:53:45;1.13;;;0.68;;
21661;SDS011;10992;48.170;8.596;2023-04-24T01:56:21;1.42;;;0.75;;
21661;SDS011;10992;48.170;8.596;2023-04-24T01:58:51;1.67;;;0.68;;
21661;SDS011;10992;48.170;8.596;2023-04-24T02:01:20;1.58;;;0.95;;
21661;SDS011;10992;48.170;8.596;2023-04-24T02:03:47;2.85;;;1.15;;
21661;SDS011;10992;48.170;8.596;2023-04-24T02:06:14;2.38;;;1.02;;
21661;SDS011;10992;48.170;8.596;2023-04-24T02:08:41;2.28;;;0.88;;
21661;SDS011;10992;48.170;8.596;2023-04-24T02:11:09;2.92;;;1.23;;
21661;SDS011;10992;48.170;8.596;2023-04-24T02:13:36;2.15;;;1.02;;
21661;SDS011;10992;48.170;8.596;2023-04-24T02:16:03;2.05;;;1.00;;
21661;SDS011;10992;48.170;8.596;2023-04-24T02:18:30;3.78;;;1.15;;
21661;SDS011;10992;48.170;8.596;2023-04-24T02:20:56;3.10;;;1.10;;
21661;SDS011;10992;48.170;8.596;2023-04-24T02:23:23;1.85;;;0.93;;
21661;SDS011;10992;48.170;8.596;2023-04-24T02:25:50;4.05;;;1.25;;
21661;SDS011;10992;48.170;8.596;2023-04-24T02:28:19;1.80;;;0.93;;
21661;SDS011;10992;48.170;8.596;2023-04-24T02:30:46;2.95;;;1.13;;
21661;SDS011;10992;48.170;8.596;2023-04-24T02:33:13;2.05;;;1.20;;
21661;SDS011;10992;48.170;8.596;2023-04-24T02:35:40;3.70;;;1.05;;
21661;SDS011;10992;48.170;8.596;2023-04-24T02:38:07;1.73;;;1.30;;
21661;SDS011;10992;48.170;8.596;2023-04-24T02:40:35;1.85;;;1.10;;
21661;SDS011;10992;48.170;8.596;2023-04-24T02:43:05;1.83;;;1.40;;
21661;SDS011;10992;48.170;8.596;2023-04-24T02:45:32;4.15;;;1.80;;
21661;SDS011;10992;48.170;8.596;2023-04-24T02:48:00;5.05;;;1.30;;
21661;SDS011;10992;48.170;8.596;2023-04-24T02:50:28;1.25;;;1.13;;
21661;SDS011;10992;48.170;8.596;2023-04-24T02:52:55;1.98;;;1.40;;
21661;SDS011;10992;48.170;8.596;2023-04-24T02:55:25;1.83;;;1.25;;
21661;SDS011;10992;48.170;8.596;2023-04-24T02:57:52;2.13;;;1.20;;
21661;SDS011;10992;48.170;8.596;2023-04-24T03:00:20;2.22;;;1.42;;
21661;SDS011;10992;48.170;8.596;2023-04-24T03:02:49;1.20;;;1.08;;
21661;SDS011;10992;48.170;8.596;2023-04-24T03:05:17;4.80;;;1.58;;
21661;SDS011;10992;48.170;8.596;2023-04-24T03:07:44;3.63;;;1.15;;
21661;SDS011;10992;48.170;8.596;2023-04-24T03:10:11;3.13;;;1.40;;
21661;SDS011;10992;48.170;8.596;2023-04-24T03:12:38;2.88;;;1.48;;
21661;SDS011;10992;48.170;8.596;2023-04-24T03:15:08;2.92;;;1.73;;
21661;SDS011;10992;48.170;8.596;2023-04-24T03:17:36;4.47;;;1.73;;
21661;SDS011;10992;48.170;8.596;2023-04-24T03:20:09;3.10;;;2.08;;
21661;SDS011;10992;48.170;8.596;2023-04-24T03:22:36;2.58;;;1.83;;
21661;SDS011;10992;48.170;8.596;2023-04-24T03:25:06;2.83;;;1.70;;
21661;SDS011;10992;48.170;8.596;2023-04-24T03:27:35;3.30;;;1.70;;
21661;SDS011;10992;48.170;8.596;2023-04-24T03:30:13;1.63;;;1.40;;
21661;SDS011;10992;48.170;8.596;2023-04-24T03:32:48;3.42;;;1.52;;
21661;SDS011;10992;48.170;8.596;2023-04-24T03:35:30;1.67;;;1.45;;
21661;SDS011;10992;48.170;8.596;2023-04-24T03:38:01;4.20;;;1.88;;
21661;SDS011;10992;48.170;8.596;2023-04-24T03:40:48;2.92;;;1.70;;
21661;SDS011;10992;48.170;8.596;2023-04-24T03:43:37;2.67;;;1.73;;
21661;SDS011;10992;48.170;8.596;2023-04-24T03:46:05;2.63;;;1.40;;
21661;SDS011;10992;48.170;8.596;2023-04-24T03:48:39;2.70;;;1.30;;
21661;SDS011;10992;48.170;8.596;2023-04-24T03:51:07;1.80;;;1.48;;
21661;SDS011;10992;48.170;8.596;2023-04-24T03:53:36;2.63;;;1.30;;
21661;SDS011;10992;48.170;8.596;2023-04-24T03:56:04;4.75;;;1.23;;
21661;SDS011;10992;48.170;8.596;2023-04-24T03:58:32;2.58;;;1.30;;
21661;SDS011;10992;48.170;8.596;2023-04-24T04:00:59;3.25;;;1.42;;
21661;SDS011;10992;48.170;8.596;2023-04-24T04:03:52;2.50;;;1.30;;
21661;SDS011;10992;48.170;8.596;2023-04-24T04:06:22;2.40;;;1.50;;
21661;SDS011;10992;48.170;8.596;2023-04-24T04:08:52;2.05;;;1.17;;
21661;SDS011;10992;48.170;8.596;2023-04-24T04:11:21;1.88;;;1.00;;
21661;SDS011;10992;48.170;8.596;2023-04-24T04:13:47;2.55;;;1.05;;
21661;SDS011;10992;48.170;8.596;2023-04-24T04:16:17;1.20;;;1.02;;
21661;SDS011;10992;48.170;8.596;2023-04-24T04:18:48;3.45;;;1.52;;
21661;SDS011;10992;48.170;8.596;2023-04-24T04:21:15;1.55;;;1.13;;
21661;SDS011;10992;48.170;8.596;2023-04-24T04:23:43;4.68;;;1.45;;
21661;SDS011;10992;48.170;8.596;2023-04-24T04:26:17;2.05;;;1.65;;
21661;SDS011;10992;48.170;8.596;2023-04-24T04:28:59;1.98;;;1.13;;
21661;SDS011;10992;48.170;8.596;2023-04-24T04:31:27;2.08;;;1.30;;
21661;SDS011;10992;48.170;8.596;2023-04-24T04:33:56;4.60;;;2.15;;
21661;SDS011;10992;48.170;8.596;2023-04-24T04:36:22;2.65;;;2.22;;
21661;SDS011;10992;48.170;8.596;2023-04-24T04:38:57;3.20;;;2.38;;
21661;SDS011;10992;48.170;8.596;2023-04-24T04:41:44;4.25;;;2.75;;
21661;SDS011;10992;48.170;8.596;2023-04-24T04:44:16;3.28;;;2.38;;
21661;SDS011;10992;48.170;8.596;2023-04-24T04:46:44;2.97;;;2.30;;
21661;SDS011;10992;48.170;8.596;2023-04-24T04:49:29;3.05;;;2.75;;
21661;SDS011;10992;48.170;8.596;2023-04-24T04:51:57;3.92;;;2.50;;
21661;SDS011;10992;48.170;8.596;2023-04-24T04:54:25;6.38;;;3.33;;
21661;SDS011;10992;48.170;8.596;2023-04-24T04:56:53;3.90;;;3.05;;
21661;SDS011;10992;48.170;8.596;2023-04-24T04:59:20;4.03;;;3.00;;
21661;SDS011;10992;48.170;8.596;2023-04-24T05:01:51;4.13;;;2.70;;
21661;SDS011;10992;48.170;8.596;2023-04-24T05:04:19;5.70;;;3.22;;
21661;SDS011;10992;48.170;8.596;2023-04-24T05:06:46;4.50;;;3.35;;
21661;SDS011;10992;48.170;8.596;2023-04-24T05:09:19;3.08;;;2.67;;
21661;SDS011;10992;48.170;8.596;2023-04-24T05:11:51;2.95;;;2.65;;
21661;SDS011;10992;48.170;8.596;2023-04-24T05:14:18;4.10;;;3.03;;
21661;SDS011;10992;48.170;8.596;2023-04-24T05:16:45;4.65;;;2.90;;
21661;SDS011;10992;48.170;8.596;2023-04-24T05:19:14;3.67;;;3.03;;
21661;SDS011;10992;48.170;8.596;2023-04-24T05:21:45;3.58;;;2.75;;
21661;SDS011;10992;48.170;8.596;2023-04-24T05:24:12;3.75;;;3.00;;
21661;SDS011;10992;48.170;8.596;2023-04-24T05:26:58;4.28;;;2.92;;
21661;SDS011;10992;48.170;8.596;2023-04-24T05:29:32;7.07;;;3.10;;
21661;SDS011;10992;48.170;8.596;2023-04-24T05:32:00;4.57;;;2.53;;
21661;SDS011;10992;48.170;8.596;2023-04-24T05:34:29;3.67;;;2.50;;
21661;SDS011;10992;48.170;8.596;2023-04-24T05:36:56;4.82;;;2.72;;
21661;SDS011;10992;48.170;8.596;2023-04-24T05:39:24;3.50;;;2.22;;
21661;SDS011;10992;48.170;8.596;2023-04-24T05:41:52;2.70;;;2.30;;
21661;SDS011;10992;48.170;8.596;2023-04-24T05:44:19;4.72;;;2.00;;
21661;SDS011;10992;48.170;8.596;2023-04-24T05:46:47;2.50;;;1.92;;
21661;SDS011;10992;48.170;8.596;2023-04-24T05:49:15;2.80;;;2.15;;
21661;SDS011;10992;48.170;8.596;2023-04-24T05:51:42;3.35;;;2.00;;
21661;SDS011;10992;48.170;8.596;2023-04-24T05:54:09;2.30;;;1.77;;
21661;SDS011;10992;48.170;8.596;2023-04-24T05:56:38;2.88;;;1.70;;
21661;SDS011;10992;48.170;8.596;2023-04-24T05:59:10;4.00;;;1.70;;
21661;SDS011;10992;48.170;8.596;2023-04-24T06:01:37;2.58;;;1.25;;
21661;SDS011;10992;48.170;8.596;2023-04-24T06:04:11;1.83;;;1.35;;
21661;SDS011;10992;48.170;8.596;2023-04-24T06:06:40;1.90;;;1.55;;
21661;SDS011;10992;48.170;8.596;2023-04-24T06:09:08;2.22;;;1.58;;
21661;SDS011;10992;48.170;8.596;2023-04-24T06:11:34;2.78;;;1.58;;
21661;SDS011;10992;48.170;8.596;2023-04-24T06:14:02;3.92;;;1.58;;
21661;SDS011;10992;48.170;8.596;2023-04-24T06:16:49;1.90;;;1.70;;
21661;SDS011;10992;48.170;8.596;2023-04-24T06:19:31;2.33;;;1.42;;
21661;SDS011;10992;48.170;8.596;2023-04-24T06:21:58;3.05;;;1.75;;
21661;SDS011;10992;48.170;8.596;2023-04-24T06:24:28;1.58;;;1.40;;
21661;SDS011;10992;48.170;8.596;2023-04-24T06:27:00;2.42;;;1.48;;
21661;SDS011;10992;48.170;8.596;2023-04-24T06:29:28;2.25;;;1.50;;
21661;SDS011;10992;48.170;8.596;2023-04-24T06:31:54;3.10;;;1.83;;
21661;SDS011;10992;48.170;8.596;2023-04-24T06:34:21;3.17;;;1.90;;
21661;SDS011;10992;48.170;8.596;2023-04-24T06:36:48;3.65;;;1.88;;
21661;SDS011;10992;48.170;8.596;2023-04-24T06:39:15;1.92;;;1.65;;
21661;SDS011;10992;48.170;8.596;2023-04-24T06:41:42;4.35;;;1.75;;
21661;SDS011;10992;48.170;8.596;2023-04-24T06:44:17;2.33;;;1.33;;
21661;SDS011;10992;48.170;8.596;2023-04-24T06:46:44;2.28;;;1.00;;
21661;SDS011;10992;48.170;8.596;2023-04-24T06:49:11;1.83;;;0.93;;
21661;SDS011;10992;48.170;8.596;2023-04-24T06:51:38;1.02;;;0.93;;
21661;SDS011;10992;48.170;8.596;2023-04-24T06:54:05;2.75;;;0.77;;
21661;SDS011;10992;48.170;8.596;2023-04-24T06:56:32;3.13;;;1.00;;
21661;SDS011;10992;48.170;8.596;2023-04-24T06:59:00;1.88;;;1.30;;
21661;SDS011;10992;48.170;8.596;2023-04-24T07:01:27;1.15;;;0.70;;
21661;SDS011;10992;48.170;8.596;2023-04-24T07:03:54;9.20;;;4.85;;
21661;SDS011;10992;48.170;8.596;2023-04-24T07:06:21;1.38;;;0.90;;
21661;SDS011;10992;48.170;8.596;2023-04-24T07:08:50;2.42;;;1.80;;
21661;SDS011;10992;48.170;8.596;2023-04-24T07:11:17;2.53;;;0.90;;
21661;SDS011;10992;48.170;8.596;2023-04-24T07:13:44;5.20;;;1.15;;
21661;SDS011;10992;48.170;8.596;2023-04-24T07:16:11;1.98;;;1.00;;
21661;SDS011;10992;48.170;8.596;2023-04-24T07:18:38;1.77;;;1.13;;
21661;SDS011;10992;48.170;8.596;2023-04-24T07:21:06;3.42;;;1.33;;
21661;SDS011;10992;48.170;8.596;2023-04-24T07:23:33;1.45;;;1.30;;
21661;SDS011;10992;48.170;8.596;2023-04-24T07:26:00;2.22;;;1.33;;
21661;SDS011;10992;48.170;8.596;2023-04-24T07:28:27;2.75;;;1.30;;
21661;SDS011;10992;48.170;8.596;2023-04-24T07:30:57;3.40;;;1.33;;
21661;SDS011;10992;48.170;8.596;2023-04-24T07:33:25;3.05;;;1.20;;
21661;SDS011;10992;48.170;8.596;2023-04-24T07:35:52;2.83;;;1.20;;
21661;SDS011;10992;48.170;8.596;2023-04-24T07:38:20;2.92;;;1.38;;
21661;SDS011;10992;48.170;8.596;2023-04-24T07:40:57;2.17;;;1.40;;
21661;SDS011;10992;48.170;8.596;2023-04-24T07:43:24;1.60;;;1.25;;
21661;SDS011;10992;48.170;8.596;2023-04-24T07:45:51;2.42;;;1.70;;
21661;SDS011;10992;48.170;8.596;2023-04-24T07:48:18;1.65;;;1.30;;
21661;SDS011;10992;48.170;8.596;2023-04-24T07:50:47;1.85;;;1.40;;
21661;SDS011;10992;48.170;8.596;2023-04-24T07:53:14;2.08;;;1.58;;
21661;SDS011;10992;48.170;8.596;2023-04-24T07:55:41;2.60;;;1.73;;
21661;SDS011;10992;48.170;8.596;2023-04-24T07:58:08;2.55;;;1.50;;
21661;SDS011;10992;48.170;8.596;2023-04-24T08:00:36;2.40;;;1.65;;
21661;SDS011;10992;48.170;8.596;2023-04-24T08:03:03;2.22;;;1.45;;
21661;SDS011;10992;48.170;8.596;2023-04-24T08:05:30;4.47;;;1.73;;
21661;SDS011;10992;48.170;8.596;2023-04-24T08:07:58;2.30;;;1.60;;
21661;SDS011;10992;48.170;8.596;2023-04-24T08:10:26;2.20;;;1.70;;
21661;SDS011;10992;48.170;8.596;2023-04-24T08:12:56;2.72;;;1.65;;
21661;SDS011;10992;48.170;8.596;2023-04-24T08:15:23;2.70;;;1.52;;
21661;SDS011;10992;48.170;8.596;2023-04-24T08:17:49;1.77;;;1.40;;
21661;SDS011;10992;48.170;8.596;2023-04-24T08:20:16;1.60;;;0.77;;
21661;SDS011;10992;48.170;8.596;2023-04-24T08:22:43;1.13;;;1.02;;
21661;SDS011;10992;48.170;8.596;2023-04-24T08:25:11;2.25;;;1.30;;
21661;SDS011;10992;48.170;8.596;2023-04-24T08:27:38;1.58;;;1.23;;
21661;SDS011;10992;48.170;8.596;2023-04-24T08:30:05;2.08;;;1.48;;
21661;SDS011;10992;48.170;8.596;2023-04-24T08:32:33;3.08;;;1.30;;
21661;SDS011;10992;48.170;8.596;2023-04-24T08:35:00;4.95;;;1.60;;
21661;SDS011;10992;48.170;8.596;2023-04-24T08:37:32;1.92;;;1.23;;
21661;SDS011;10992;48.170;8.596;2023-04-24T08:39:59;3.13;;;1.70;;
21661;SDS011;10992;48.170;8.596;2023-04-24T08:42:28;3.03;;;1.48;;
21661;SDS011;10992;48.170;8.596;2023-04-24T08:44:56;4.05;;;1.67;;
21661;SDS011;10992;48.170;8.596;2023-04-24T08:47:24;3.60;;;1.40;;
21661;SDS011;10992;48.170;8.596;2023-04-24T08:49:53;5.80;;;1.88;;
21661;SDS011;10992;48.170;8.596;2023-04-24T08:52:21;2.53;;;1.70;;
21661;SDS011;10992;48.170;8.596;2023-04-24T08:54:51;2.97;;;1.80;;
21661;SDS011;10992;48.170;8.596;2023-04-24T08:57:20;1.92;;;1.42;;
21661;SDS011;10992;48.170;8.596;2023-04-24T08:59:47;4.10;;;1.42;;
21661;SDS011;10992;48.170;8.596;2023-04-24T09:02:15;3.13;;;1.90;;
21661;SDS011;10992;48.170;8.596;2023-04-24T09:04:43;4.15;;;2.55;;
21661;SDS011;10992;48.170;8.596;2023-04-24T09:07:12;3.50;;;2.28;;
21661;SDS011;10992;48.170;8.596;2023-04-24T09:09:40;3.53;;;2.00;;
21661;SDS011;10992;48.170;8.596;2023-04-24T09:12:08;2.38;;;1.90;;
21661;SDS011;10992;48.170;8.596;2023-04-24T09:14:36;3.25;;;1.92;;
21661;SDS011;10992;48.170;8.596;2023-04-24T09:17:11;4.10;;;2.10;;
21661;SDS011;10992;48.170;8.596;2023-04-24T09:19:39;4.38;;;2.17;;
21661;SDS011;10992;48.170;8.596;2023-04-24T09:22:07;5.05;;;2.22;;
21661;SDS011;10992;48.170;8.596;2023-04-24T09:24:35;4.63;;;2.13;;
21661;SDS011;10992;48.170;8.596;2023-04-24T09:27:02;4.90;;;2.38;;
21661;SDS011;10992;48.170;8.596;2023-04-24T09:29:30;3.95;;;2.60;;
21661;SDS011;10992;48.170;8.596;2023-04-24T09:31:59;5.05;;;2.45;;
21661;SDS011;10992;48.170;8.596;2023-04-24T09:34:43;3.50;;;2.55;;
21661;SDS011;10992;48.170;8.596;2023-04-24T09:37:29;5.30;;;2.17;;
21661;SDS011;10992;48.170;8.596;2023-04-24T09:40:18;2.92;;;2.15;;
21661;SDS011;10992;48.170;8.596;2023-04-24T09:42:46;3.28;;;2.40;;
21661;SDS011;10992;48.170;8.596;2023-04-24T09:45:18;4.00;;;2.60;;
21661;SDS011;10992;48.170;8.596;2023-04-24T09:47:46;2.75;;;1.75;;
21661;SDS011;10992;48.170;8.596;2023-04-24T09:50:18;3.58;;;2.20;;
21661;SDS011;10992;48.170;8.596;2023-04-24T09:52:58;3.63;;;2.08;;
21661;SDS011;10992;48.170;8.596;2023-04-24T09:55:28;2.25;;;1.75;;
21661;SDS011;10992;48.170;8.596;2023-04-24T09:57:56;2.38;;;1.50;;
21661;SDS011;10992;48.170;8.596;2023-04-24T10:00:31;3.53;;;1.70;;
21661;SDS011;10992;48.170;8.596;2023-04-24T10:03:05;2.28;;;1.60;;
21661;SDS011;10992;48.170;8.596;2023-04-24T10:05:33;2.20;;;1.60;;
21661;SDS011;10992;48.170;8.596;2023-04-24T10:08:05;3.08;;;1.65;;
21661;SDS011;10992;48.170;8.596;2023-04-24T10:10:39;3.70;;;1.40;;
21661;SDS011;10992;48.170;8.596;2023-04-24T10:13:08;2.72;;;1.77;;
21661;SDS011;10992;48.170;8.596;2023-04-24T10:15:37;3.88;;;1.52;;
21661;SDS011;10992;48.170;8.596;2023-04-24T10:18:05;3.90;;;1.48;;
21661;SDS011;10992;48.170;8.596;2023-04-24T10:20:36;2.72;;;1.35;;
21661;SDS011;10992;48.170;8.596;2023-04-24T10:23:06;3.28;;;1.75;;
21661;SDS011;10992;48.170;8.596;2023-04-24T10:25:42;4.07;;;1.60;;
21661;SDS011;10992;48.170;8.596;2023-04-24T10:28:17;4.78;;;1.98;;
21661;SDS011;10992;48.170;8.596;2023-04-24T10:30:49;3.25;;;1.48;;
21661;SDS011;10992;48.170;8.596;2023-04-24T10:33:22;3.42;;;1.60;;
21661;SDS011;10992;48.170;8.596;2023-04-24T10:35:52;1.98;;;1.27;;
21661;SDS011;10992;48.170;8.596;2023-04-24T10:38:24;2.47;;;1.45;;
21661;SDS011;10992;48.170;8.596;2023-04-24T10:41:12;3.20;;;1.70;;
21661;SDS011;10992;48.170;8.596;2023-04-24T10:43:46;2.10;;;1.30;;
21661;SDS011;10992;48.170;8.596;2023-04-24T10:46:19;3.17;;;1.45;;
21661;SDS011;10992;48.170;8.596;2023-04-24T10:48:52;3.78;;;1.40;;
21661;SDS011;10992;48.170;8.596;2023-04-24T10:51:24;1.98;;;1.23;;
21661;SDS011;10992;48.170;8.596;2023-04-24T10:54:53;4.80;;;1.05;;
21661;SDS011;10992;48.170;8.596;2023-04-24T10:59:49;1.98;;;1.08;;
21661;SDS011;10992;48.170;8.596;2023-04-24T11:02:36;2.60;;;0.80;;
21661;SDS011;10992;48.170;8.596;2023-04-24T11:05:08;1.75;;;1.05;;
21661;SDS011;10992;48.170;8.596;2023-04-24T11:11:00;2.47;;;1.02;;
21661;SDS011;10992;48.170;8.596;2023-04-24T11:18:59;1.80;;;1.02;;
21661;SDS011;10992;48.170;8.596;2023-04-24T11:21:38;2.97;;;1.20;;
21661;SDS011;10992;48.170;8.596;2023-04-24T11:32:24;2.40;;;1.30;;
21661;SDS011;10992;48.170;8.596;2023-04-24T11:34:54;1.58;;;0.63;;
21661;SDS011;10992;48.170;8.596;2023-04-24T11:37:34;1.95;;;0.60;;
21661;SDS011;10992;48.170;8.596;2023-04-24T11:40:04;1.67;;;0.60;;
21661;SDS011;10992;48.170;8.596;2023-04-24T11:42:36;1.02;;;0.60;;
21661;SDS011;10992;48.170;8.596;2023-04-24T11:45:09;2.28;;;0.70;;
21661;SDS011;10992;48.170;8.596;2023-04-24T11:47:38;1.35;;;0.70;;
21661;SDS011;10992;48.170;8.596;2023-04-24T11:50:06;1.73;;;0.50;;
21661;SDS011;10992;48.170;8.596;2023-04-24T11:52:36;0.85;;;0.57;;
21661;SDS011;10992;48.170;8.596;2023-04-24T11:57:46;2.15;;;0.70;;
21661;SDS011;10992;48.170;8.596;2023-04-24T12:00:18;0.77;;;0.57;;
21661;SDS011;10992;48.170;8.596;2023-04-24T12:02:48;1.10;;;0.40;;
21661;SDS011;10992;48.170;8.596;2023-04-24T12:05:26;1.65;;;0.43;;
21661;SDS011;10992;48.170;8.596;2023-04-24T12:07:57;0.93;;;0.50;;
21661;SDS011;10992;48.170;8.596;2023-04-24T12:10:24;1.63;;;0.80;;
21661;SDS011;10992;48.170;8.596;2023-04-24T12:12:53;2.22;;;0.75;;
21661;SDS011;10992;48.170;8.596;2023-04-24T12:15:21;0.55;;;0.50;;
21661;SDS011;10992;48.170;8.596;2023-04-24T12:17:52;1.85;;;0.70;;
21661;SDS011;10992;48.170;8.596;2023-04-24T12:20:27;1.55;;;0.85;;
21661;SDS011;10992;48.170;8.596;2023-04-24T12:22:56;3.88;;;3.10;;
21661;SDS011;10992;48.170;8.596;2023-04-24T12:25:32;2.00;;;0.60;;
21661;SDS011;10992;48.170;8.596;2023-04-24T12:30:32;3.42;;;1.48;;
21661;SDS011;10992;48.170;8.596;2023-04-24T12:33:00;1.45;;;1.10;;
21661;SDS011;10992;48.170;8.596;2023-04-24T12:35:30;1.25;;;0.85;;
21661;SDS011;10992;48.170;8.596;2023-04-24T12:38:21;1.40;;;1.05;;
21661;SDS011;10992;48.170;8.596;2023-04-24T12:41:04;0.80;;;0.60;;
21661;SDS011;10992;48.170;8.596;2023-04-24T12:43:36;1.40;;;0.75;;
21661;SDS011;10992;48.170;8.596;2023-04-24T12:46:07;2.67;;;0.90;;
21661;SDS011;10992;48.170;8.596;2023-04-24T12:48:46;1.15;;;0.75;;
21661;SDS011;10992;48.170;8.596;2023-04-24T12:51:18;1.73;;;0.80;;
21661;SDS011;10992;48.170;8.596;2023-04-24T12:53:49;1.83;;;0.70;;
21661;SDS011;10992;48.170;8.596;2023-04-24T12:56:18;2.05;;;0.95;;
21661;SDS011;10992;48.170;8.596;2023-04-24T12:58:54;1.35;;;0.77;;
21661;SDS011;10992;48.170;8.596;2023-04-24T13:01:21;1.35;;;0.80;;
21661;SDS011;10992;48.170;8.596;2023-04-24T13:03:52;1.52;;;1.42;;
21661;SDS011;10992;48.170;8.596;2023-04-24T13:06:22;1.48;;;0.73;;
21661;SDS011;10992;48.170;8.596;2023-04-24T13:08:59;2.78;;;1.02;;
21661;SDS011;10992;48.170;8.596;2023-04-24T13:11:50;1.83;;;0.80;;
21661;SDS011;10992;48.170;8.596;2023-04-24T13:14:17;1.92;;;1.10;;
21661;SDS011;10992;48.170;8.596;2023-04-24T13:16:47;1.58;;;1.10;;
21661;SDS011;10992;48.170;8.596;2023-04-24T13:19:21;2.35;;;1.10;;
21661;SDS011;10992;48.170;8.596;2023-04-24T13:21:50;1.48;;;1.02;;
21661;SDS011;10992;48.170;8.596;2023-04-24T13:24:18;1.63;;;1.02;;
21661;SDS011;10992;48.170;8.596;2023-04-24T13:26:52;3.72;;;0.95;;
21661;SDS011;10992;48.170;8.596;2023-04-24T13:29:19;4.82;;;1.00;;
21661;SDS011;10992;48.170;8.596;2023-04-24T13:31:49;2.72;;;0.95;;
21661;SDS011;10992;48.170;8.596;2023-04-24T13:34:18;2.47;;;1.00;;
21661;SDS011;10992;48.170;8.596;2023-04-24T13:36:46;1.60;;;1.13;;
21661;SDS011;10992;48.170;8.596;2023-04-24T13:39:22;2.08;;;0.80;;
21661;SDS011;10992;48.170;8.596;2023-04-24T13:41:54;1.65;;;0.88;;
21661;SDS011;10992;48.170;8.596;2023-04-24T13:44:21;1.40;;;0.90;;
21661;SDS011;10992;48.170;8.596;2023-04-24T13:46:52;0.93;;;0.80;;
21661;SDS011;10992;48.170;8.596;2023-04-24T13:49:23;3.65;;;1.17;;
21661;SDS011;10992;48.170;8.596;2023-04-24T13:51:52;2.08;;;1.08;;
21661;SDS011;10992;48.170;8.596;2023-04-24T13:54:26;3.38;;;0.98;;
21661;SDS011;10992;48.170;8.596;2023-04-24T13:56:59;2.65;;;0.95;;
21661;SDS011;10992;48.170;8.596;2023-04-24T13:59:27;2.72;;;1.13;;
21661;SDS011;10992;48.170;8.596;2023-04-24T14:01:55;3.20;;;1.17;;
21661;SDS011;10992;48.170;8.596;2023-04-24T14:04:23;4.43;;;1.10;;
21661;SDS011;10992;48.170;8.596;2023-04-24T14:07:00;2.15;;;0.90;;
21661;SDS011;10992;48.170;8.596;2023-04-24T14:09:34;2.35;;;1.00;;
21661;SDS011;10992;48.170;8.596;2023-04-24T14:12:05;2.90;;;0.98;;
21661;SDS011;10992;48.170;8.596;2023-04-24T14:14:43;4.13;;;0.98;;
21661;SDS011;10992;48.170;8.596;2023-04-24T14:17:27;1.77;;;1.00;;
21661;SDS011;10992;48.170;8.596;2023-04-24T14:20:05;2.95;;;0.93;;
21661;SDS011;10992;48.170;8.596;2023-04-24T14:22:41;3.08;;;1.08;;
21661;SDS011;10992;48.170;8.596;2023-04-24T14:25:08;3.83;;;1.00;;
21661;SDS011;10992;48.170;8.596;2023-04-24T14:27:36;1.40;;;0.90;;
21661;SDS011;10992;48.170;8.596;2023-04-24T14:30:06;1.70;;;1.08;;
21661;SDS011;10992;48.170;8.596;2023-04-24T14:32:34;1.20;;;1.00;;
21661;SDS011;10992;48.170;8.596;2023-04-24T14:35:01;1.00;;;0.80;;
21661;SDS011;10992;48.170;8.596;2023-04-24T14:37:29;1.50;;;0.73;;
21661;SDS011;10992;48.170;8.596;2023-04-24T14:39:56;3.38;;;1.20;;
21661;SDS011;10992;48.170;8.596;2023-04-24T14:42:43;2.00;;;1.15;;
21661;SDS011;10992;48.170;8.596;2023-04-24T14:45:10;1.63;;;1.05;;
21661;SDS011;10992;48.170;8.596;2023-04-24T14:47:37;1.55;;;1.00;;
21661;SDS011;10992;48.170;8.596;2023-04-24T14:50:04;1.88;;;1.00;;
21661;SDS011;10992;48.170;8.596;2023-04-24T14:52:32;1.20;;;0.85;;
21661;SDS011;10992;48.170;8.596;2023-04-24T14:55:05;1.95;;;1.00;;
21661;SDS011;10992;48.170;8.596;2023-04-24T14:57:33;3.15;;;0.90;;
21661;SDS011;10992;48.170;8.596;2023-04-24T15:00:02;1.90;;;1.08;;
21661;SDS011;10992;48.170;8.596;2023-04-24T15:02:34;1.67;;;1.08;;
21661;SDS011;10992;48.170;8.596;2023-04-24T15:05:04;3.95;;;2.00;;
21661;SDS011;10992;48.170;8.596;2023-04-24T15:07:33;2.17;;;1.25;;
21661;SDS011;10992;48.170;8.596;2023-04-24T15:10:02;2.53;;;1.10;;
21661;SDS011;10992;48.170;8.596;2023-04-24T15:12:29;4.00;;;1.85;;
21661;SDS011;10992;48.170;8.596;2023-04-24T15:14:57;2.45;;;0.90;;
21661;SDS011;10992;48.170;8.596;2023-04-24T15:17:25;4.57;;;1.48;;
21661;SDS011;10992;48.170;8.596;2023-04-24T15:19:53;2.15;;;0.95;;
21661;SDS011;10992;48.170;8.596;2023-04-24T15:22:20;4.40;;;1.48;;
21661;SDS011;10992;48.170;8.596;2023-04-24T15:24:47;3.97;;;2.30;;
21661;SDS011;10992;48.170;8.596;2023-04-24T15:27:14;4.40;;;2.50;;
21661;SDS011;10992;48.170;8.596;2023-04-24T15:29:41;2.22;;;1.27;;